createdAt,value
2019-05-21T00:00:57.818Z,49.18
2019-05-21T00:03:26.320Z,45.73
2019-05-21T00:05:54.846Z,51.23
2019-05-21T00:08:23.314Z,50.78
2019-05-21T00:10:51.819Z,51.50
2019-05-21T00:13:20.351Z,51.35
2019-05-21T00:15:48.809Z,54.03
2019-05-21T00:18:17.314Z,49.65
2019-05-21T00:20:45.780Z,57.95
2019-05-21T00:23:14.240Z,55.73
2019-05-21T00:25:42.744Z,53.28
2019-05-21T00:28:32.081Z,49.58
2019-05-21T00:31:36.820Z,50.35
2019-05-21T00:34:43.915Z,45.30
2019-05-21T00:37:48.593Z,28.17
2019-05-21T00:40:53.779Z,44.77
2019-05-21T00:43:30.962Z,44.05
2019-05-21T00:45:59.432Z,44.30
2019-05-21T00:48:27.886Z,45.48
2019-05-21T00:50:56.388Z,46.98
2019-05-21T00:53:24.923Z,49.45
2019-05-21T00:55:53.389Z,49.42
2019-05-21T00:58:21.877Z,52.15
2019-05-21T01:00:50.350Z,48.98
2019-05-21T01:03:18.809Z,49.48
2019-05-21T01:05:47.323Z,48.30
2019-05-21T01:08:15.791Z,46.95
2019-05-21T01:10:44.248Z,52.25
2019-05-21T01:13:12.773Z,44.35
2019-05-21T01:15:41.233Z,50.38
2019-05-21T01:18:09.762Z,53.42
2019-05-21T01:20:38.264Z,52.98
2019-05-21T01:23:06.734Z,60.28
2019-05-21T01:25:35.187Z,54.55
2019-05-21T01:28:03.685Z,59.27
2019-05-21T01:30:32.151Z,58.13
2019-05-21T01:33:00.622Z,62.05
2019-05-21T01:35:29.129Z,64.35
2019-05-21T01:37:57.587Z,68.02
2019-05-21T01:40:26.050Z,61.70
2019-05-21T01:42:54.552Z,69.40
2019-05-21T01:45:23.013Z,62.75
2019-05-21T01:47:51.472Z,55.33
2019-05-21T01:50:20.008Z,63.10
2019-05-21T01:52:48.532Z,55.52
2019-05-21T01:55:17.005Z,55.40
2019-05-21T01:57:45.491Z,49.55
2019-05-21T02:00:14.201Z,56.50
2019-05-21T02:02:42.740Z,56.48
2019-05-21T02:05:11.390Z,53.98
2019-05-21T02:07:39.841Z,53.92
2019-05-21T02:10:08.750Z,59.55
2019-05-21T02:12:37.252Z,50.35
2019-05-21T02:15:07.108Z,54.10
2019-05-21T02:17:35.572Z,57.27
2019-05-21T02:20:05.716Z,54.03
2019-05-21T02:22:34.186Z,57.75
2019-05-21T02:25:02.790Z,50.83
2019-05-21T02:27:31.291Z,50.00
2019-05-21T02:29:59.761Z,52.78
2019-05-21T02:32:28.226Z,49.50
2019-05-21T02:34:56.724Z,57.80
2019-05-21T02:37:25.183Z,53.17
2019-05-21T02:39:53.643Z,50.08
2019-05-21T02:42:22.151Z,53.90
2019-05-21T02:44:53.889Z,64.12
2019-05-21T02:47:21.034Z,56.80
2019-05-21T02:49:49.613Z,52.10
2019-05-21T02:52:18.079Z,49.60
2019-05-21T02:54:46.576Z,53.95
2019-05-21T02:57:15.143Z,49.75
2019-05-21T02:59:45.253Z,57.85
2019-05-21T03:02:33.429Z,59.90
2019-05-21T03:05:01.894Z,63.35
2019-05-21T03:07:30.526Z,63.70
2019-05-21T03:09:59.014Z,66.00
2019-05-21T03:12:27.540Z,58.90
2019-05-21T03:14:56.015Z,57.43
2019-05-21T03:17:24.605Z,66.15
2019-05-21T03:19:53.128Z,60.28
2019-05-21T03:22:21.584Z,63.78
2019-05-21T03:24:50.151Z,57.10
2019-05-21T03:27:18.617Z,64.25
2019-05-21T03:29:47.349Z,67.25
2019-05-21T03:32:15.850Z,62.78
2019-05-21T03:34:44.313Z,65.90
2019-05-21T03:37:12.860Z,59.25
2019-05-21T03:39:41.425Z,60.12
2019-05-21T03:42:09.905Z,55.55
2019-05-21T03:44:56.319Z,59.50
2019-05-21T03:47:09.474Z,50.88
2019-05-21T03:49:37.960Z,56.10
2019-05-21T03:52:06.481Z,55.60
2019-05-21T03:54:35.216Z,53.05
2019-05-21T03:57:03.933Z,49.13
2019-05-21T03:59:32.461Z,51.73
2019-05-21T04:02:01.024Z,49.63
2019-05-21T04:04:29.490Z,52.20
2019-05-21T04:06:57.951Z,53.40
2019-05-21T04:09:26.452Z,55.05
2019-05-21T04:11:54.907Z,48.10
2019-05-21T04:14:31.296Z,43.75
2019-05-21T04:17:02.323Z,46.85
2019-05-21T04:19:35.489Z,43.48
2019-05-21T04:22:05.564Z,47.38
2019-05-21T04:24:34.018Z,43.20
2019-05-21T04:27:02.518Z,44.38
2019-05-21T04:29:30.996Z,45.92
2019-05-21T04:31:59.462Z,39.48
2019-05-21T04:34:28.013Z,41.70
2019-05-21T04:37:09.863Z,38.05
2019-05-21T04:39:26.781Z,41.50
2019-05-21T04:41:55.364Z,39.05
2019-05-21T04:44:23.827Z,43.52
2019-05-21T04:46:52.280Z,39.60
2019-05-21T04:49:20.793Z,41.05
2019-05-21T04:51:49.479Z,35.38
2019-05-21T04:54:17.959Z,37.42
2019-05-21T04:56:46.591Z,37.78
2019-05-21T04:59:15.046Z,37.13
2019-05-21T05:01:43.505Z,36.50
2019-05-21T05:04:12.012Z,39.15
2019-05-21T05:06:40.472Z,38.73
2019-05-21T05:09:08.945Z,38.73
2019-05-21T05:11:37.702Z,36.00
2019-05-21T05:14:06.232Z,39.95
2019-05-21T05:16:34.700Z,44.00
2019-05-21T05:19:03.207Z,33.28
2019-05-21T05:21:31.664Z,40.03
2019-05-21T05:24:00.133Z,38.55
2019-05-21T05:26:28.636Z,33.85
2019-05-21T05:28:57.117Z,31.75
2019-05-21T05:31:25.587Z,32.90
2019-05-21T05:33:54.167Z,36.88
2019-05-21T05:36:22.621Z,33.85
2019-05-21T05:38:51.155Z,35.58
2019-05-21T05:41:19.666Z,30.97
2019-05-21T05:43:48.139Z,27.77
2019-05-21T05:46:16.608Z,33.40
2019-05-21T05:48:46.825Z,32.38
2019-05-21T05:51:15.319Z,28.10
2019-05-21T05:53:59.184Z,27.17
2019-05-21T05:56:28.993Z,30.45
2019-05-21T05:58:57.598Z,28.73
2019-05-21T06:01:27.237Z,26.05
2019-05-21T06:03:55.764Z,26.25
2019-05-21T06:06:24.231Z,26.60
2019-05-21T06:08:52.735Z,29.95
2019-05-21T06:11:21.200Z,32.60
2019-05-21T06:13:49.650Z,30.72
2019-05-21T06:16:18.159Z,31.02
2019-05-21T06:18:46.767Z,32.40
2019-05-21T06:21:15.225Z,28.80
2019-05-21T06:23:44.039Z,31.93
2019-05-21T06:26:12.500Z,28.57
2019-05-21T06:28:41.033Z,24.18
2019-05-21T06:31:09.612Z,26.55
2019-05-21T06:33:38.088Z,23.20
2019-05-21T06:36:06.698Z,21.60
2019-05-21T06:38:35.189Z,25.82
2019-05-21T06:41:03.818Z,25.75
2019-05-21T06:43:32.333Z,27.52
2019-05-21T06:46:00.837Z,27.48
2019-05-21T06:48:29.309Z,27.75
2019-05-21T06:50:57.794Z,30.35
2019-05-21T06:53:26.383Z,33.30
2019-05-21T06:55:54.860Z,29.12
2019-05-21T06:58:23.471Z,32.78
2019-05-21T07:00:51.985Z,29.30
2019-05-21T07:03:20.520Z,24.70
2019-05-21T07:05:58.488Z,27.02
2019-05-21T07:08:33.674Z,28.92
2019-05-21T07:10:49.633Z,24.65
2019-05-21T07:13:18.150Z,25.68
2019-05-21T07:15:46.649Z,27.73
2019-05-21T07:18:15.122Z,28.60
2019-05-21T07:20:43.589Z,24.98
2019-05-21T07:23:12.180Z,26.90
2019-05-21T07:25:40.654Z,25.62
2019-05-21T07:28:09.110Z,27.15
2019-05-21T07:30:37.704Z,22.40
2019-05-21T07:33:06.897Z,26.35
2019-05-21T07:35:35.703Z,24.15
2019-05-21T07:38:04.285Z,20.30
2019-05-21T07:40:32.740Z,21.97
2019-05-21T07:43:01.210Z,23.75
2019-05-21T07:45:29.785Z,27.42
2019-05-21T07:47:58.251Z,25.20
2019-05-21T07:50:26.846Z,31.75
2019-05-21T07:52:55.365Z,24.90
2019-05-21T07:55:23.892Z,30.23
2019-05-21T07:57:52.352Z,34.33
2019-05-21T08:00:21.294Z,34.30
2019-05-21T08:02:49.756Z,32.63
2019-05-21T08:05:18.225Z,30.97
2019-05-21T08:07:46.785Z,31.95
2019-05-21T08:10:16.090Z,31.73
2019-05-21T08:12:44.562Z,27.05
2019-05-21T08:15:13.487Z,20.50
2019-05-21T08:17:42.012Z,27.48
2019-05-21T08:20:11.630Z,27.73
2019-05-21T08:22:40.185Z,27.05
2019-05-21T08:25:09.063Z,25.60
2019-05-21T08:27:37.604Z,27.10
2019-05-21T08:30:06.902Z,26.82
2019-05-21T08:32:35.356Z,26.65
2019-05-21T08:35:05.754Z,25.60
2019-05-21T08:37:34.327Z,25.40
2019-05-21T08:40:03.226Z,24.77
2019-05-21T08:42:31.692Z,22.20
2019-05-21T08:45:00.243Z,24.07
2019-05-21T08:47:28.720Z,20.20
2019-05-21T08:49:57.186Z,19.85
2019-05-21T08:52:25.677Z,16.82
2019-05-21T08:54:56.458Z,17.15
2019-05-21T08:57:24.333Z,18.55
2019-05-21T08:59:52.825Z,17.10
2019-05-21T09:02:21.369Z,18.25
2019-05-21T09:04:49.931Z,21.68
2019-05-21T09:07:18.769Z,18.37
2019-05-21T09:09:50.642Z,16.50
2019-05-21T09:12:17.557Z,22.05
2019-05-21T09:14:46.083Z,21.57
2019-05-21T09:17:14.684Z,20.72
2019-05-21T09:19:43.158Z,21.23
2019-05-21T09:22:11.737Z,16.57
2019-05-21T09:24:40.190Z,18.95
2019-05-21T09:27:08.668Z,22.50
2019-05-21T09:29:37.244Z,20.50
2019-05-21T09:32:05.708Z,18.82
2019-05-21T09:34:48.109Z,18.73
2019-05-21T09:37:18.523Z,19.75
2019-05-21T09:39:34.791Z,20.72
2019-05-21T09:42:03.422Z,20.68
2019-05-21T09:44:31.983Z,23.25
2019-05-21T09:47:00.463Z,22.30
2019-05-21T09:49:29.052Z,19.77
2019-05-21T09:51:57.551Z,19.75
2019-05-21T09:54:26.090Z,22.48
2019-05-21T09:56:54.557Z,18.57
2019-05-21T09:59:24.692Z,16.77
2019-05-21T10:01:57.583Z,17.70
2019-05-21T10:04:26.140Z,17.65
2019-05-21T10:06:54.733Z,18.20
2019-05-21T10:09:23.260Z,15.15
2019-05-21T10:11:51.724Z,18.62
2019-05-21T10:14:20.236Z,17.85
2019-05-21T10:16:48.774Z,17.48
2019-05-21T10:19:17.244Z,19.15
2019-05-21T10:21:45.767Z,17.62
2019-05-21T10:24:14.227Z,20.08
2019-05-21T10:26:42.851Z,16.15
2019-05-21T10:29:11.349Z,17.27
2019-05-21T10:31:39.970Z,18.65
2019-05-21T10:34:08.490Z,17.25
2019-05-21T10:36:36.991Z,17.15
2019-05-21T10:39:07.191Z,14.83
2019-05-21T10:41:35.648Z,13.45
2019-05-21T10:44:04.786Z,12.40
2019-05-21T10:46:33.323Z,14.23
2019-05-21T10:49:01.863Z,14.80
2019-05-21T10:51:30.383Z,15.98
2019-05-21T10:53:58.963Z,12.85
2019-05-21T10:56:27.477Z,13.22
2019-05-21T10:58:55.973Z,14.05
2019-05-21T11:01:29.375Z,17.70
2019-05-21T11:04:08.744Z,14.45
2019-05-21T11:06:37.555Z,17.90
2019-05-21T11:09:09.595Z,16.10
2019-05-21T11:11:38.243Z,13.03
2019-05-21T11:14:06.882Z,13.10
2019-05-21T11:16:35.567Z,13.53
2019-05-21T11:19:04.171Z,15.78
2019-05-21T11:21:32.643Z,13.05
2019-05-21T11:24:01.273Z,12.43
2019-05-21T11:26:29.925Z,9.98
2019-05-21T11:28:58.389Z,15.95
2019-05-21T11:31:26.854Z,12.18
2019-05-21T11:33:55.525Z,12.18
2019-05-21T11:36:24.058Z,16.10
2019-05-21T11:38:52.521Z,12.43
2019-05-21T11:41:21.024Z,13.00
2019-05-21T11:43:49.645Z,13.60
2019-05-21T11:46:18.087Z,12.90
2019-05-21T11:48:46.607Z,16.17
2019-05-21T11:51:15.115Z,12.53
2019-05-21T11:53:43.603Z,11.55
2019-05-21T11:56:13.685Z,13.53
2019-05-21T11:58:42.222Z,15.95
2019-05-21T12:01:10.744Z,9.38
2019-05-21T12:03:39.222Z,10.10
2019-05-21T12:06:07.691Z,12.20
2019-05-21T12:08:36.250Z,13.70
2019-05-21T12:11:05.032Z,17.70
2019-05-21T12:13:33.547Z,11.28
2019-05-21T12:16:02.172Z,14.13
2019-05-21T12:18:30.669Z,11.33
2019-05-21T12:20:59.127Z,12.37
2019-05-21T12:23:27.634Z,9.35
2019-05-21T12:25:56.174Z,9.80
2019-05-21T12:28:24.727Z,11.95
2019-05-21T12:30:53.249Z,8.25
2019-05-21T12:33:21.740Z,11.12
2019-05-21T12:35:50.271Z,10.63
2019-05-21T12:38:18.730Z,9.98
2019-05-21T12:40:48.010Z,11.05
2019-05-21T12:43:16.471Z,11.68
2019-05-21T12:45:44.994Z,11.12
2019-05-21T12:48:13.498Z,9.38
2019-05-21T12:50:41.971Z,13.25
2019-05-21T12:53:10.504Z,8.78
2019-05-21T12:55:39.067Z,10.58
2019-05-21T12:58:07.528Z,9.00
2019-05-21T13:00:36.629Z,9.45
2019-05-21T13:03:05.259Z,9.60
2019-05-21T13:05:33.875Z,9.50
2019-05-21T13:08:02.422Z,9.20
2019-05-21T13:10:31.024Z,9.90
2019-05-21T13:12:59.523Z,8.28
2019-05-21T13:15:27.985Z,9.45
2019-05-21T13:17:56.477Z,7.72
2019-05-21T13:20:25.106Z,9.80
2019-05-21T13:22:53.651Z,7.45
2019-05-21T13:25:22.282Z,7.65
2019-05-21T13:27:50.744Z,11.12
2019-05-21T13:30:19.613Z,8.55
2019-05-21T13:32:48.175Z,8.28
2019-05-21T13:35:16.702Z,10.40
2019-05-21T13:37:45.153Z,6.17
2019-05-21T13:40:14.189Z,8.28
2019-05-21T13:42:42.648Z,10.05
2019-05-21T13:45:11.508Z,9.43
2019-05-21T13:47:40.074Z,8.28
2019-05-21T13:50:08.938Z,9.40
2019-05-21T13:52:37.393Z,8.18
2019-05-21T13:55:09.202Z,7.90
2019-05-21T13:57:37.733Z,7.80
2019-05-21T14:00:10.070Z,8.35
2019-05-21T14:02:39.103Z,7.05
2019-05-21T14:05:07.907Z,8.05
2019-05-21T14:07:36.484Z,6.83
2019-05-21T14:10:19.170Z,6.25
2019-05-21T14:12:37.159Z,8.55
2019-05-21T14:15:06.646Z,6.83
2019-05-21T14:17:35.155Z,9.08
2019-05-21T14:20:08.047Z,9.05
2019-05-21T14:22:36.781Z,8.90
2019-05-21T14:25:08.605Z,6.42
2019-05-21T14:27:44.241Z,5.42
2019-05-21T14:30:09.363Z,8.00
2019-05-21T14:32:38.105Z,5.55
2019-05-21T14:35:07.099Z,7.67
2019-05-21T14:37:35.694Z,7.60
2019-05-21T14:40:08.294Z,9.35
2019-05-21T14:42:36.752Z,8.85
2019-05-21T14:45:08.525Z,7.78
2019-05-21T14:47:37.092Z,6.10
2019-05-21T14:50:08.236Z,8.78
2019-05-21T14:52:36.768Z,6.10
2019-05-21T14:55:07.163Z,7.30
2019-05-21T14:57:35.611Z,8.38
2019-05-21T15:00:19.294Z,5.87
2019-05-21T15:02:48.470Z,6.20
2019-05-21T15:05:16.968Z,6.17
2019-05-21T15:07:49.498Z,8.25
2019-05-21T15:10:16.151Z,6.47
2019-05-21T15:12:44.662Z,7.95
2019-05-21T15:15:14.061Z,9.63
2019-05-21T15:17:42.917Z,7.33
2019-05-21T15:20:17.605Z,7.30
2019-05-21T15:22:46.207Z,7.15
2019-05-21T15:25:14.697Z,6.83
2019-05-21T15:27:43.147Z,9.63
2019-05-21T15:30:12.200Z,9.45
2019-05-21T15:32:40.647Z,7.62
2019-05-21T15:35:09.254Z,9.00
2019-05-21T15:37:37.749Z,6.87
2019-05-21T15:40:07.546Z,9.30
2019-05-21T15:42:36.009Z,10.03
2019-05-21T15:45:05.651Z,8.35
2019-05-21T15:47:34.183Z,10.15
2019-05-21T15:50:02.642Z,7.35
2019-05-21T15:52:31.135Z,9.45
2019-05-21T15:54:59.653Z,6.40
2019-05-21T15:57:28.099Z,8.23
2019-05-21T15:59:56.621Z,6.78
2019-05-21T16:02:25.085Z,7.58
2019-05-21T16:04:53.564Z,8.33
2019-05-21T16:07:22.055Z,7.95
2019-05-21T16:09:50.516Z,8.93
2019-05-21T16:12:19.043Z,8.10
2019-05-21T16:14:47.518Z,7.92
2019-05-21T16:17:15.976Z,8.95
2019-05-21T16:19:44.430Z,9.30
2019-05-21T16:22:12.925Z,9.15
2019-05-21T16:24:41.372Z,9.48
2019-05-21T16:27:09.820Z,9.88
2019-05-21T16:29:38.317Z,6.67
2019-05-21T16:32:06.937Z,7.22
2019-05-21T16:34:35.389Z,6.40
2019-05-21T16:37:03.902Z,5.28
2019-05-21T16:39:33.067Z,6.70
2019-05-21T16:42:01.800Z,8.50
2019-05-21T16:44:30.282Z,5.87
2019-05-21T16:46:58.761Z,7.70
2019-05-21T16:49:27.387Z,9.38
2019-05-21T16:51:55.875Z,9.13
2019-05-21T16:54:24.331Z,11.05
2019-05-21T16:56:52.854Z,7.97
2019-05-21T16:59:21.414Z,9.45
2019-05-21T17:01:49.874Z,8.90
2019-05-21T17:04:18.326Z,8.30
2019-05-21T17:06:46.909Z,8.58
2019-05-21T17:09:15.431Z,10.08
2019-05-21T17:11:57.639Z,8.65
2019-05-21T17:14:14.171Z,9.15
2019-05-21T17:16:42.628Z,8.60
2019-05-21T17:19:11.091Z,6.92
2019-05-21T17:21:39.570Z,7.95
2019-05-21T17:24:08.094Z,8.10
2019-05-21T17:26:36.614Z,8.30
2019-05-21T17:29:05.330Z,10.10
2019-05-21T17:31:33.801Z,11.63
2019-05-21T17:34:02.337Z,8.30
2019-05-21T17:36:30.903Z,10.35
2019-05-21T17:38:59.523Z,11.45
2019-05-21T17:41:27.987Z,9.53
2019-05-21T17:43:56.565Z,10.53
2019-05-21T17:46:25.192Z,11.85
2019-05-21T17:48:53.708Z,10.05
2019-05-21T17:51:22.192Z,8.23
2019-05-21T17:53:50.657Z,12.25
2019-05-21T17:56:19.110Z,10.20
2019-05-21T17:58:47.681Z,13.55
2019-05-21T18:01:17.278Z,12.35
2019-05-21T18:03:46.247Z,14.55
2019-05-21T18:06:16.255Z,16.30
2019-05-21T18:08:44.900Z,15.83
2019-05-21T18:11:15.275Z,15.23
2019-05-21T18:13:47.503Z,12.45
2019-05-21T18:16:15.116Z,13.88
2019-05-21T18:18:44.812Z,12.00
2019-05-21T18:21:13.489Z,11.53
2019-05-21T18:23:42.077Z,13.53
2019-05-21T18:26:10.811Z,16.45
2019-05-21T18:28:39.375Z,15.23
2019-05-21T18:31:07.837Z,13.15
2019-05-21T18:33:36.279Z,15.58
2019-05-21T18:36:04.795Z,12.50
2019-05-21T18:38:33.709Z,17.82
2019-05-21T18:41:02.249Z,16.90
2019-05-21T18:43:30.755Z,16.73
2019-05-21T18:45:59.362Z,13.38
2019-05-21T18:48:27.826Z,14.58
2019-05-21T18:50:56.396Z,13.60
2019-05-21T18:53:24.857Z,14.23
2019-05-21T18:55:53.315Z,15.65
2019-05-21T18:58:21.803Z,12.80
2019-05-21T19:00:50.331Z,14.80
2019-05-21T19:03:25.113Z,16.37
2019-05-21T19:05:49.051Z,15.40
2019-05-21T19:08:17.518Z,14.40
2019-05-21T19:10:45.980Z,18.10
2019-05-21T19:13:33.896Z,17.00
2019-05-21T19:16:02.441Z,13.05
2019-05-21T19:18:31.048Z,19.35
2019-05-21T19:20:59.561Z,17.07
2019-05-21T19:23:28.293Z,13.75
2019-05-21T19:25:56.750Z,25.12
2019-05-21T19:28:25.322Z,27.22
2019-05-21T19:31:13.203Z,19.42
2019-05-21T19:33:41.692Z,15.10
2019-05-21T19:36:10.162Z,20.37
2019-05-21T19:38:38.621Z,18.20
2019-05-21T19:41:08.306Z,16.90
2019-05-21T19:43:56.194Z,16.20
2019-05-21T19:46:24.693Z,16.97
2019-05-21T19:48:53.163Z,16.65
2019-05-21T19:51:21.627Z,17.55
2019-05-21T19:53:50.148Z,17.35
2019-05-21T19:56:18.689Z,19.80
2019-05-21T19:58:47.215Z,33.85
2019-05-21T20:01:15.885Z,43.15
2019-05-21T20:03:44.430Z,25.88
2019-05-21T20:06:15.338Z,23.98
2019-05-21T20:08:44.512Z,18.95
2019-05-21T20:11:14.489Z,17.23
2019-05-21T20:13:43.118Z,17.48
2019-05-21T20:16:11.642Z,14.80
2019-05-21T20:18:40.835Z,18.57
2019-05-21T20:21:09.475Z,15.90
2019-05-21T20:23:38.427Z,16.73
2019-05-21T20:26:10.560Z,19.07
2019-05-21T20:28:39.461Z,18.45
2019-05-21T20:31:07.954Z,18.15
2019-05-21T20:33:38.087Z,17.65
2019-05-21T20:36:08.157Z,19.42
2019-05-21T20:38:37.785Z,19.77
2019-05-21T20:41:06.489Z,18.80
2019-05-21T20:43:35.213Z,18.95
2019-05-21T20:46:04.254Z,19.40
2019-05-21T20:48:35.496Z,18.67
2019-05-21T20:51:04.254Z,18.92
2019-05-21T20:53:33.725Z,20.45
2019-05-21T20:56:02.323Z,15.70
2019-05-21T20:58:31.468Z,18.02
2019-05-21T21:01:01.123Z,17.90
2019-05-21T21:03:30.495Z,19.42
2019-05-21T21:05:59.022Z,19.40
2019-05-21T21:08:28.197Z,18.15
2019-05-21T21:10:56.813Z,18.35
2019-05-21T21:13:25.913Z,20.17
2019-05-21T21:15:54.972Z,19.30
2019-05-21T21:18:24.167Z,19.62
2019-05-21T21:20:52.880Z,22.02
2019-05-21T21:23:22.747Z,22.58
2019-05-21T21:25:51.266Z,19.50
2019-05-21T21:28:19.736Z,18.52
2019-05-21T21:30:48.836Z,21.00
2019-05-21T21:33:17.470Z,19.80
2019-05-21T21:35:46.210Z,21.30
2019-05-21T21:38:15.040Z,21.00
2019-05-21T21:40:43.673Z,22.10
2019-05-21T21:43:13.006Z,19.82
2019-05-21T21:45:42.421Z,19.05
2019-05-21T21:48:11.527Z,23.67
2019-05-21T21:50:41.905Z,22.85
2019-05-21T21:53:10.845Z,23.00
2019-05-21T21:55:39.310Z,21.65
2019-05-21T21:58:08.037Z,21.20
2019-05-21T22:01:03.808Z,21.90
2019-05-21T22:03:34.751Z,22.77
2019-05-21T22:06:06.656Z,24.92
2019-05-21T22:08:35.325Z,21.68
2019-05-21T22:11:04.988Z,23.55
2019-05-21T22:13:33.889Z,22.48
2019-05-21T22:16:02.686Z,21.73
2019-05-21T22:18:31.812Z,23.02
2019-05-21T22:21:01.955Z,22.30
2019-05-21T22:23:31.001Z,22.73
2019-05-21T22:25:59.593Z,26.12
2019-05-21T22:28:28.396Z,22.62
2019-05-21T22:30:57.144Z,22.82
2019-05-21T22:33:25.948Z,24.25
2019-05-21T22:35:54.484Z,23.52
2019-05-21T22:38:23.527Z,24.40
2019-05-21T22:40:52.153Z,22.80
2019-05-21T22:43:20.612Z,22.27
2019-05-21T22:45:49.192Z,21.00
2019-05-21T22:48:17.720Z,24.57
2019-05-21T22:50:46.191Z,24.02
2019-05-21T22:53:14.845Z,23.77
2019-05-21T22:55:43.306Z,21.12
2019-05-21T22:58:11.860Z,22.93
2019-05-21T23:00:41.909Z,23.02
2019-05-21T23:03:10.543Z,23.87
2019-05-21T23:05:39.269Z,22.20
2019-05-21T23:08:08.095Z,20.12
2019-05-21T23:10:37.174Z,23.83
2019-05-21T23:13:05.768Z,27.80
2019-05-21T23:15:34.604Z,27.50
2019-05-21T23:18:03.515Z,26.73
2019-05-21T23:20:33.999Z,27.65
2019-05-21T23:23:03.722Z,30.77
2019-05-21T23:25:32.515Z,27.02
2019-05-21T23:28:01.146Z,28.87
2019-05-21T23:30:29.950Z,30.95
2019-05-21T23:32:58.956Z,29.60
2019-05-21T23:35:28.524Z,30.15
2019-05-21T23:37:57.281Z,30.30
2019-05-21T23:40:26.117Z,28.87
2019-05-21T23:42:55.025Z,29.20
2019-05-21T23:45:23.579Z,33.65
2019-05-21T23:47:52.848Z,26.95
2019-05-21T23:50:22.114Z,26.15
2019-05-21T23:52:52.682Z,30.77
2019-05-21T23:55:21.209Z,28.73
2019-05-21T23:57:49.749Z,30.90
